createdAt,value
2018-12-08T00:02:14.826Z,7.70
2018-12-08T00:04:41.958Z,7.70
2018-12-08T00:07:09.139Z,7.70
2018-12-08T00:09:36.549Z,7.70
2018-12-08T00:12:03.842Z,7.80
2018-12-08T00:14:31.069Z,7.80
2018-12-08T00:16:58.323Z,7.90
2018-12-08T00:19:25.603Z,7.90
2018-12-08T00:21:52.731Z,8.00
2018-12-08T00:24:19.879Z,8.00
2018-12-08T00:26:47.157Z,8.00
2018-12-08T00:29:14.508Z,8.00
2018-12-08T00:31:45.359Z,7.90
2018-12-08T00:34:12.523Z,7.90
2018-12-08T00:36:39.859Z,7.70
2018-12-08T00:39:07.543Z,7.80
2018-12-08T00:41:35.234Z,7.80
2018-12-08T00:44:02.634Z,7.90
2018-12-08T00:46:29.895Z,8.00
2018-12-08T00:48:57.046Z,7.90
2018-12-08T00:51:24.412Z,7.90
2018-12-08T00:53:51.585Z,7.80
2018-12-08T00:56:18.843Z,7.80
2018-12-08T00:58:45.978Z,7.70
2018-12-08T01:01:13.208Z,7.80
2018-12-08T01:03:40.663Z,7.70
2018-12-08T01:06:07.920Z,7.70
2018-12-08T01:08:35.071Z,7.70
2018-12-08T01:11:02.245Z,7.70
2018-12-08T01:13:29.562Z,7.70
2018-12-08T01:15:56.691Z,7.70
2018-12-08T01:18:23.852Z,7.80
2018-12-08T01:20:51.003Z,7.80
2018-12-08T01:23:18.168Z,7.80
2018-12-08T01:25:45.879Z,7.80
2018-12-08T01:28:13.054Z,7.90
2018-12-08T01:30:40.298Z,7.90
2018-12-08T01:33:07.607Z,8.00
2018-12-08T01:35:34.925Z,7.90
2018-12-08T01:38:02.087Z,7.90
2018-12-08T01:40:29.355Z,7.90
2018-12-08T01:42:56.795Z,7.80
2018-12-08T01:45:24.826Z,7.80
2018-12-08T01:47:52.128Z,7.80
2018-12-08T01:50:19.639Z,7.70
2018-12-08T01:52:46.923Z,7.60
2018-12-08T01:55:14.076Z,7.70
2018-12-08T01:57:41.332Z,7.80
2018-12-08T02:00:08.838Z,7.80
2018-12-08T02:02:36.090Z,7.70
2018-12-08T02:05:03.926Z,7.60
2018-12-08T02:07:31.082Z,7.70
2018-12-08T02:09:58.239Z,7.70
2018-12-08T02:12:25.388Z,7.70
2018-12-08T02:14:52.523Z,7.70
2018-12-08T02:17:19.682Z,7.70
2018-12-08T02:19:46.944Z,7.70
2018-12-08T02:22:14.075Z,7.70
2018-12-08T02:24:41.340Z,7.70
2018-12-08T02:27:08.590Z,7.70
2018-12-08T02:29:35.878Z,7.80
2018-12-08T02:32:03.327Z,7.80
2018-12-08T02:34:30.481Z,7.90
2018-12-08T02:36:57.640Z,7.90
2018-12-08T02:39:24.799Z,7.90
2018-12-08T02:41:51.966Z,8.00
2018-12-08T02:44:19.103Z,8.00
2018-12-08T02:46:46.414Z,7.90
2018-12-08T02:49:14.782Z,7.90
2018-12-08T02:51:41.927Z,7.90
2018-12-08T02:54:09.093Z,7.90
2018-12-08T02:56:36.234Z,7.90
2018-12-08T02:59:03.499Z,7.90
2018-12-08T03:01:30.631Z,7.90
2018-12-08T03:03:57.891Z,7.80
2018-12-08T03:06:25.212Z,7.70
2018-12-08T03:08:52.463Z,7.70
2018-12-08T03:11:19.611Z,7.70
2018-12-08T03:13:46.760Z,7.70
2018-12-08T03:16:13.895Z,7.70
2018-12-08T03:18:41.031Z,7.70
2018-12-08T03:21:08.221Z,7.70
2018-12-08T03:23:35.372Z,7.70
2018-12-08T03:26:02.640Z,7.70
2018-12-08T03:28:29.779Z,7.70
2018-12-08T03:30:56.919Z,7.80
2018-12-08T03:33:24.175Z,7.70
2018-12-08T03:35:51.566Z,7.70
2018-12-08T03:38:18.699Z,7.70
2018-12-08T03:40:46.105Z,7.70
2018-12-08T03:43:13.314Z,7.60
2018-12-08T03:45:40.467Z,7.60
2018-12-08T03:48:07.609Z,7.60
2018-12-08T03:50:34.851Z,7.50
2018-12-08T03:53:01.974Z,7.40
2018-12-08T03:55:29.115Z,7.40
2018-12-08T03:57:57.587Z,7.40
2018-12-08T04:00:24.740Z,7.40
2018-12-08T04:02:51.946Z,7.30
2018-12-08T04:05:19.218Z,7.20
2018-12-08T04:07:46.445Z,7.20
2018-12-08T04:10:13.802Z,7.10
2018-12-08T04:12:41.184Z,7.10
2018-12-08T04:15:08.463Z,7.10
2018-12-08T04:17:35.603Z,7.10
2018-12-08T04:20:03.271Z,7.20
2018-12-08T04:22:30.424Z,7.20
2018-12-08T04:24:57.572Z,7.20
2018-12-08T04:27:24.767Z,7.20
2018-12-08T04:29:51.928Z,7.20
2018-12-08T04:32:19.085Z,7.20
2018-12-08T04:34:46.222Z,7.20
2018-12-08T04:37:13.351Z,7.30
2018-12-08T04:39:40.510Z,7.30
2018-12-08T04:42:07.781Z,7.30
2018-12-08T04:44:35.044Z,7.30
2018-12-08T04:47:02.186Z,7.40
2018-12-08T04:49:29.459Z,7.40
2018-12-08T04:53:21.269Z,7.40
2018-12-08T04:55:48.517Z,7.40
2018-12-08T04:58:22.536Z,7.40
2018-12-08T05:00:49.798Z,7.40
2018-12-08T05:03:16.948Z,7.50
2018-12-08T05:05:44.111Z,7.60
2018-12-08T05:08:11.256Z,7.60
2018-12-08T05:10:38.526Z,7.60
2018-12-08T05:13:05.684Z,7.60
2018-12-08T05:15:32.839Z,7.70
2018-12-08T05:17:59.971Z,7.70
2018-12-08T05:20:27.114Z,7.80
2018-12-08T05:22:54.252Z,7.80
2018-12-08T05:25:21.523Z,7.80
2018-12-08T05:27:49.623Z,7.80
2018-12-08T05:30:16.787Z,7.80
2018-12-08T05:32:43.932Z,7.70
2018-12-08T05:35:11.199Z,7.70
2018-12-08T05:37:38.347Z,7.70
2018-12-08T05:40:06.678Z,7.60
2018-12-08T05:42:33.945Z,7.80
2018-12-08T05:45:01.221Z,7.80
2018-12-08T05:47:28.490Z,7.90
2018-12-08T05:49:55.640Z,7.90
2018-12-08T05:52:22.933Z,7.90
2018-12-08T05:54:50.109Z,8.00
2018-12-08T05:57:17.355Z,7.90
2018-12-08T05:59:44.499Z,7.90
2018-12-08T06:02:11.793Z,7.90
2018-12-08T06:04:38.922Z,7.90
2018-12-08T06:10:37.262Z,8.10
2018-12-08T06:13:04.423Z,8.10
2018-12-08T06:15:31.717Z,8.00
2018-12-08T06:17:59.038Z,8.00
2018-12-08T06:20:26.191Z,8.00
2018-12-08T06:22:53.568Z,8.00
2018-12-08T06:25:29.514Z,8.00
2018-12-08T06:28:23.703Z,8.00
2018-12-08T06:30:51.022Z,7.90
2018-12-08T06:33:20.266Z,7.90
2018-12-08T06:35:47.446Z,8.00
2018-12-08T06:38:14.587Z,7.90
2018-12-08T06:40:41.736Z,7.90
2018-12-08T06:43:08.986Z,7.90
2018-12-08T06:45:36.261Z,7.80
2018-12-08T06:48:03.529Z,7.90
2018-12-08T06:50:30.896Z,7.90
2018-12-08T06:52:58.263Z,7.80
2018-12-08T06:55:25.397Z,7.70
2018-12-08T06:57:52.647Z,7.70
2018-12-08T07:00:19.954Z,7.70
2018-12-08T07:02:47.155Z,7.70
2018-12-08T07:05:14.423Z,7.80
2018-12-08T07:07:41.583Z,7.70
2018-12-08T07:10:08.868Z,7.70
2018-12-08T07:12:36.092Z,7.60
2018-12-08T07:15:03.597Z,7.60
2018-12-08T07:17:31.019Z,7.70
2018-12-08T07:19:58.163Z,7.80
2018-12-08T07:22:25.397Z,7.80
2018-12-08T07:24:52.660Z,7.80
2018-12-08T07:27:19.802Z,7.70
2018-12-08T07:29:46.935Z,7.60
2018-12-08T07:32:14.115Z,7.60
2018-12-08T07:34:41.259Z,7.60
2018-12-08T07:37:08.523Z,7.60
2018-12-08T07:39:35.778Z,7.70
2018-12-08T07:42:03.103Z,7.60
2018-12-08T07:44:30.330Z,7.60
2018-12-08T07:46:57.482Z,7.60
2018-12-08T07:49:24.619Z,7.70
2018-12-08T07:51:51.791Z,7.60
2018-12-08T07:54:19.002Z,7.70
2018-12-08T07:56:46.143Z,7.70
2018-12-08T07:59:13.314Z,7.70
2018-12-08T08:01:40.498Z,7.70
2018-12-08T08:04:07.646Z,7.80
2018-12-08T08:06:34.787Z,7.80
2018-12-08T08:09:02.018Z,7.90
2018-12-08T08:11:29.210Z,7.90
2018-12-08T08:13:56.368Z,7.90
2018-12-08T08:16:23.612Z,7.80
2018-12-08T08:18:50.770Z,7.80
2018-12-08T08:21:17.935Z,7.80
2018-12-08T08:23:45.183Z,7.80
2018-12-08T08:26:12.365Z,7.70
2018-12-08T08:28:39.535Z,7.70
2018-12-08T08:31:06.724Z,7.70
2018-12-08T08:33:33.886Z,7.70
2018-12-08T08:36:01.032Z,7.60
2018-12-08T08:38:28.286Z,7.60
2018-12-08T08:40:55.533Z,7.60
2018-12-08T08:43:22.763Z,7.60
2018-12-08T08:45:50.035Z,7.60
2018-12-08T08:48:17.239Z,7.60
2018-12-08T08:50:44.375Z,7.60
2018-12-08T08:53:11.581Z,7.60
2018-12-08T08:55:38.849Z,7.50
2018-12-08T08:58:06.078Z,7.60
2018-12-08T09:00:33.222Z,7.50
2018-12-08T09:03:00.417Z,7.50
2018-12-08T09:05:27.883Z,7.50
2018-12-08T09:07:55.095Z,7.40
2018-12-08T09:10:22.431Z,7.50
2018-12-08T09:12:49.570Z,7.60
2018-12-08T09:15:16.968Z,7.60
2018-12-08T09:17:44.360Z,7.60
2018-12-08T09:20:11.603Z,7.70
2018-12-08T09:22:39.183Z,7.80
2018-12-08T09:25:07.803Z,7.90
2018-12-08T09:27:35.063Z,7.90
2018-12-08T09:30:02.487Z,7.90
2018-12-08T09:32:29.635Z,8.00
2018-12-08T09:34:56.892Z,8.00
2018-12-08T09:37:24.294Z,7.90
2018-12-08T09:39:51.463Z,7.80
2018-12-08T09:42:18.643Z,7.90
2018-12-08T09:44:45.820Z,7.90
2018-12-08T09:47:12.975Z,7.90
2018-12-08T09:49:40.199Z,7.90
2018-12-08T09:52:07.562Z,7.90
2018-12-08T09:54:34.792Z,7.90
2018-12-08T09:57:01.983Z,7.90
2018-12-08T09:59:29.129Z,8.00
2018-12-08T10:01:56.291Z,8.00
2018-12-08T10:04:23.456Z,7.90
2018-12-08T10:06:50.690Z,8.00
2018-12-08T10:09:17.943Z,8.10
2018-12-08T10:11:45.095Z,8.00
2018-12-08T10:14:12.243Z,8.00
2018-12-08T10:16:46.333Z,8.10
2018-12-08T10:19:13.506Z,8.20
2018-12-08T10:21:40.752Z,8.20
2018-12-08T10:24:07.916Z,8.20
2018-12-08T10:26:35.058Z,8.20
2018-12-08T10:29:02.223Z,8.20
2018-12-08T10:31:29.367Z,8.20
2018-12-08T10:33:56.512Z,8.20
2018-12-08T10:36:23.882Z,8.30
2018-12-08T10:38:51.134Z,8.20
2018-12-08T10:41:18.417Z,8.30
2018-12-08T10:43:45.674Z,8.30
2018-12-08T10:46:12.926Z,8.30
2018-12-08T10:48:40.307Z,8.40
2018-12-08T10:51:07.671Z,8.40
2018-12-08T10:53:34.862Z,8.40
2018-12-08T10:56:02.050Z,8.50
2018-12-08T10:58:29.236Z,8.40
2018-12-08T11:01:02.299Z,8.50
2018-12-08T11:03:45.143Z,8.50
2018-12-08T11:06:12.344Z,8.60
2018-12-08T11:08:39.487Z,8.60
2018-12-08T11:11:21.646Z,8.50
2018-12-08T11:13:48.792Z,8.50
2018-12-08T11:16:16.073Z,8.40
2018-12-08T11:18:43.319Z,8.40
2018-12-08T11:21:10.495Z,8.50
2018-12-08T11:23:38.503Z,8.40
2018-12-08T11:26:06.044Z,8.40
2018-12-08T11:28:33.448Z,8.40
2018-12-08T11:31:00.700Z,8.40
2018-12-08T11:33:28.055Z,8.40
2018-12-08T11:35:55.263Z,8.40
2018-12-08T11:38:22.446Z,8.40
2018-12-08T11:40:49.703Z,8.40
2018-12-08T11:43:16.834Z,8.40
2018-12-08T11:45:43.963Z,8.40
2018-12-08T11:48:11.395Z,8.40
2018-12-08T11:50:38.774Z,8.40
2018-12-08T11:53:06.031Z,8.50
2018-12-08T11:55:33.312Z,8.50
2018-12-08T11:58:00.479Z,8.40
2018-12-08T12:00:28.325Z,8.40
2018-12-08T12:02:55.615Z,8.50
2018-12-08T12:05:22.996Z,8.60
2018-12-08T12:07:50.141Z,8.60
2018-12-08T12:10:17.401Z,8.60
2018-12-08T12:12:44.543Z,8.70
2018-12-08T12:15:11.997Z,8.70
2018-12-08T12:17:39.199Z,8.70
2018-12-08T12:20:06.819Z,8.70
2018-12-08T12:22:34.137Z,8.70
2018-12-08T12:25:02.069Z,8.60
2018-12-08T12:27:29.447Z,8.60
2018-12-08T12:29:56.602Z,8.50
2018-12-08T12:32:23.871Z,8.60
2018-12-08T12:34:51.129Z,8.60
2018-12-08T12:37:18.516Z,8.70
2018-12-08T12:39:45.831Z,8.80
2018-12-08T12:42:12.984Z,8.90
2018-12-08T12:44:40.446Z,9.00
2018-12-08T12:47:07.582Z,9.00
2018-12-08T12:49:34.724Z,9.00
2018-12-08T12:52:01.987Z,8.90
2018-12-08T12:54:29.126Z,8.80
2018-12-08T12:56:57.430Z,8.70
2018-12-08T12:59:24.560Z,8.60
2018-12-08T13:01:51.847Z,8.50
2018-12-08T13:04:19.167Z,8.60
2018-12-08T13:06:46.319Z,8.50
2018-12-08T13:09:13.450Z,8.50
2018-12-08T13:11:42.176Z,8.50
2018-12-08T13:14:09.395Z,8.60
2018-12-08T13:16:36.535Z,8.70
2018-12-08T13:19:03.667Z,8.60
2018-12-08T13:21:30.864Z,8.60
2018-12-08T13:23:58.099Z,8.60
2018-12-08T13:26:25.250Z,8.50
2018-12-08T13:28:52.391Z,8.50
2018-12-08T13:31:19.683Z,8.70
2018-12-08T13:33:50.451Z,8.60
2018-12-08T13:36:17.610Z,8.70
2018-12-08T13:38:44.794Z,8.70
2018-12-08T13:41:12.066Z,8.80
2018-12-08T13:43:40.318Z,8.80
2018-12-08T13:46:07.460Z,8.80
2018-12-08T13:48:35.037Z,8.90
2018-12-08T13:51:02.422Z,8.80
2018-12-08T13:53:36.517Z,8.80
2018-12-08T13:55:58.717Z,8.80
2018-12-08T13:58:25.847Z,8.80
2018-12-08T14:00:52.972Z,8.80
2018-12-08T14:03:20.334Z,8.90
2018-12-08T14:05:47.475Z,8.90
2018-12-08T14:08:14.623Z,8.90
2018-12-08T14:10:41.965Z,8.90
2018-12-08T14:13:09.251Z,8.90
2018-12-08T14:15:37.578Z,8.90
2018-12-08T14:18:04.854Z,8.80
2018-12-08T14:20:33.270Z,8.70
2018-12-08T14:23:00.472Z,8.80
2018-12-08T14:25:27.866Z,8.70
2018-12-08T14:27:55.291Z,8.70
2018-12-08T14:30:22.432Z,8.70
2018-12-08T14:32:49.691Z,8.60
2018-12-08T14:35:16.915Z,8.70
2018-12-08T14:37:44.544Z,8.80
2018-12-08T14:40:12.084Z,8.90
2018-12-08T14:42:39.700Z,8.90
2018-12-08T14:45:09.639Z,8.90
2018-12-08T14:47:36.920Z,8.90
2018-12-08T14:50:06.035Z,9.00
2018-12-08T14:52:33.421Z,8.90
2018-12-08T14:55:00.645Z,9.00
2018-12-08T14:57:27.918Z,8.90
2018-12-08T14:59:55.149Z,8.90
2018-12-08T15:02:22.572Z,8.80
2018-12-08T15:04:49.985Z,8.80
2018-12-08T15:07:17.306Z,8.70
2018-12-08T15:09:44.579Z,8.70
2018-12-08T15:12:11.854Z,8.70
2018-12-08T15:14:39.129Z,8.80
2018-12-08T15:17:06.606Z,8.80
2018-12-08T15:19:33.852Z,8.70
2018-12-08T15:22:01.102Z,8.70
2018-12-08T15:24:28.580Z,8.70
2018-12-08T15:26:55.835Z,8.70
2018-12-08T15:29:23.155Z,8.60
2018-12-08T15:31:50.833Z,8.60
2018-12-08T15:34:18.168Z,8.60
2018-12-08T15:36:45.646Z,8.60
2018-12-08T15:39:12.923Z,8.50
2018-12-08T15:41:43.105Z,8.50
2018-12-08T15:44:10.680Z,8.50
2018-12-08T15:46:37.903Z,8.50
2018-12-08T15:49:05.611Z,8.50
2018-12-08T15:51:32.846Z,8.70
2018-12-08T15:54:00.305Z,8.80
2018-12-08T15:56:27.673Z,8.70
2018-12-08T15:58:55.032Z,8.80
2018-12-08T16:01:22.358Z,8.80
2018-12-08T16:03:49.621Z,8.80
2018-12-08T16:06:16.987Z,8.80
2018-12-08T16:08:44.419Z,8.80
2018-12-08T16:11:11.657Z,8.70
2018-12-08T16:13:39.622Z,8.80
2018-12-08T16:16:06.964Z,8.80
2018-12-08T16:18:34.316Z,8.80
2018-12-08T16:21:03.343Z,9.10
2018-12-08T16:23:30.874Z,9.00
2018-12-08T16:25:58.277Z,9.00
2018-12-08T16:28:25.521Z,9.00
2018-12-08T16:30:52.846Z,9.00
2018-12-08T16:33:20.120Z,9.00
2018-12-08T16:35:50.444Z,9.00
2018-12-08T16:38:17.787Z,9.10
2018-12-08T16:40:45.269Z,9.10
2018-12-08T16:43:12.567Z,9.10
2018-12-08T16:45:39.822Z,9.10
2018-12-08T16:48:07.242Z,9.10
2018-12-08T16:50:34.371Z,9.10
2018-12-08T16:53:01.695Z,9.20
2018-12-08T16:55:28.880Z,9.20
2018-12-08T16:57:56.119Z,9.20
2018-12-08T17:00:23.275Z,9.20
2018-12-08T17:02:50.644Z,9.10
2018-12-08T17:05:18.007Z,9.10
2018-12-08T17:07:45.267Z,9.10
2018-12-08T17:10:13.040Z,9.20
2018-12-08T17:12:40.278Z,9.10
2018-12-08T17:15:07.762Z,9.10
2018-12-08T17:17:35.062Z,9.10
2018-12-08T17:20:02.691Z,9.00
2018-12-08T17:22:29.847Z,9.10
2018-12-08T17:24:57.264Z,9.00
2018-12-08T17:27:24.668Z,9.00
2018-12-08T17:29:51.827Z,9.00
2018-12-08T17:32:19.109Z,9.10
2018-12-08T17:34:46.347Z,9.20
2018-12-08T17:37:13.495Z,9.20
2018-12-08T17:39:40.767Z,9.20
2018-12-08T17:42:08.019Z,9.20
2018-12-08T17:44:35.269Z,9.10
2018-12-08T17:47:02.520Z,9.10
2018-12-08T17:49:29.678Z,9.20
2018-12-08T17:51:57.251Z,9.20
2018-12-08T17:54:24.599Z,9.10
2018-12-08T17:56:52.248Z,9.20
2018-12-08T17:59:19.974Z,9.20
2018-12-08T18:01:47.252Z,9.20
2018-12-08T18:04:14.397Z,9.20
2018-12-08T18:06:41.542Z,9.20
2018-12-08T18:09:08.686Z,9.10
2018-12-08T18:11:35.951Z,9.10
2018-12-08T18:14:03.415Z,9.10
2018-12-08T18:16:30.809Z,9.00
2018-12-08T18:18:58.032Z,9.00
2018-12-08T18:21:25.572Z,8.90
2018-12-08T18:23:52.834Z,8.90
2018-12-08T18:26:19.992Z,8.90
2018-12-08T18:28:47.489Z,9.00
2018-12-08T18:31:15.524Z,9.00
2018-12-08T18:33:44.503Z,9.00
2018-12-08T18:36:12.559Z,9.00
2018-12-08T18:38:39.836Z,9.00
2018-12-08T18:41:07.203Z,9.00
2018-12-08T18:43:34.562Z,9.00
2018-12-08T18:46:02.004Z,9.00
2018-12-08T18:48:29.280Z,9.00
2018-12-08T18:50:56.543Z,9.00
2018-12-08T18:53:23.858Z,9.00
2018-12-08T18:55:51.001Z,9.00
2018-12-08T18:58:18.311Z,9.00
2018-12-08T19:00:45.515Z,9.00
2018-12-08T19:03:12.769Z,8.90
2018-12-08T19:05:40.135Z,8.90
2018-12-08T19:08:07.478Z,8.90
2018-12-08T19:10:34.635Z,8.90
2018-12-08T19:13:01.807Z,9.00
2018-12-08T19:15:29.068Z,8.90
2018-12-08T19:17:56.211Z,8.90
2018-12-08T19:20:23.459Z,8.90
2018-12-08T19:22:50.919Z,8.90
2018-12-08T19:25:18.187Z,8.80
2018-12-08T19:27:45.626Z,8.70
2018-12-08T19:30:13.000Z,8.60
2018-12-08T19:32:40.256Z,8.50
2018-12-08T19:35:07.522Z,8.40
2018-12-08T19:37:34.667Z,8.40
2018-12-08T19:40:01.944Z,8.30
2018-12-08T19:42:29.121Z,8.20
2018-12-08T19:44:57.310Z,8.30
2018-12-08T19:47:24.459Z,8.20
2018-12-08T19:49:51.611Z,8.20
2018-12-08T19:52:18.854Z,8.10
2018-12-08T19:54:46.113Z,8.10
2018-12-08T19:57:13.275Z,8.00
2018-12-08T19:59:40.410Z,8.00
2018-12-08T20:02:07.702Z,8.00
2018-12-08T20:04:34.988Z,8.10
2018-12-08T20:07:02.176Z,8.00
2018-12-08T20:09:29.542Z,8.00
2018-12-08T20:11:56.687Z,8.10
2018-12-08T20:14:23.820Z,8.10
2018-12-08T20:16:52.199Z,8.20
2018-12-08T20:19:20.294Z,8.10
2018-12-08T20:21:47.438Z,8.20
2018-12-08T20:24:14.693Z,8.20
2018-12-08T20:26:42.034Z,8.10
2018-12-08T20:29:09.179Z,8.10
2018-12-08T20:31:36.426Z,8.10
2018-12-08T20:34:03.680Z,8.10
2018-12-08T20:36:30.955Z,8.10
2018-12-08T20:38:58.121Z,8.10
2018-12-08T20:41:25.280Z,8.20
2018-12-08T20:43:52.499Z,8.00
2018-12-08T20:46:19.639Z,8.10
2018-12-08T20:48:46.788Z,8.10
2018-12-08T20:51:13.936Z,8.10
2018-12-08T20:53:41.307Z,8.20
2018-12-08T20:56:08.545Z,8.10
2018-12-08T20:58:35.675Z,8.10
2018-12-08T21:01:03.064Z,8.10
2018-12-08T21:03:30.202Z,8.10
2018-12-08T21:05:57.554Z,8.10
2018-12-08T21:08:24.803Z,8.00
2018-12-08T21:10:51.964Z,8.10
2018-12-08T21:13:19.123Z,8.10
2018-12-08T21:15:46.371Z,8.10
2018-12-08T21:18:13.610Z,8.20
2018-12-08T21:20:40.952Z,8.20
2018-12-08T21:23:08.125Z,8.30
2018-12-08T21:25:35.492Z,8.30
2018-12-08T21:28:02.955Z,8.30
2018-12-08T21:30:30.096Z,8.20
2018-12-08T21:32:57.233Z,8.30
2018-12-08T21:35:24.539Z,8.40
2018-12-08T21:37:51.678Z,8.40
2018-12-08T21:40:25.388Z,8.40
2018-12-08T21:42:52.742Z,8.40
2018-12-08T21:45:19.982Z,8.50
2018-12-08T21:47:47.126Z,8.50
2018-12-08T21:50:14.378Z,8.40
2018-12-08T21:53:45.556Z,8.40
2018-12-08T21:56:12.898Z,8.50
2018-12-08T21:58:40.048Z,8.50
2018-12-08T22:01:07.219Z,8.50
2018-12-08T22:03:34.530Z,8.40
2018-12-08T22:06:01.775Z,8.40
2018-12-08T22:08:29.015Z,8.40
2018-12-08T22:10:56.276Z,8.40
2018-12-08T22:13:23.420Z,8.40
2018-12-08T22:15:50.682Z,8.30
2018-12-08T22:18:17.917Z,8.30
2018-12-08T22:20:45.073Z,8.30
2018-12-08T22:23:12.226Z,8.30
2018-12-08T22:25:39.488Z,8.30
2018-12-08T22:28:06.757Z,8.30
2018-12-08T22:30:34.111Z,8.30
2018-12-08T22:33:01.293Z,8.30
2018-12-08T22:35:28.519Z,8.30
2018-12-08T22:37:55.750Z,8.30
2018-12-08T22:40:23.012Z,8.30
2018-12-08T22:42:50.167Z,8.30
2018-12-08T22:45:18.210Z,8.30
2018-12-08T22:47:45.375Z,8.30
2018-12-08T22:50:12.522Z,8.30
2018-12-08T22:52:39.691Z,8.40
2018-12-08T22:55:07.112Z,8.50
2018-12-08T22:57:34.266Z,8.40
2018-12-08T23:00:01.529Z,8.40
2018-12-08T23:02:28.884Z,8.40
2018-12-08T23:04:56.022Z,8.40
2018-12-08T23:07:23.283Z,8.50
2018-12-08T23:09:50.415Z,8.50
2018-12-08T23:12:17.587Z,8.70
2018-12-08T23:14:44.743Z,8.90
2018-12-08T23:17:15.054Z,9.20
2018-12-08T23:19:42.186Z,9.40
2018-12-08T23:22:09.461Z,9.50
2018-12-08T23:24:36.715Z,9.70
2018-12-08T23:27:03.976Z,9.70
2018-12-08T23:29:31.348Z,9.80
2018-12-08T23:31:58.647Z,9.90
2018-12-08T23:34:25.922Z,10.00
2018-12-08T23:36:53.194Z,10.20
2018-12-08T23:39:20.332Z,10.30
2018-12-08T23:41:47.595Z,10.30
2018-12-08T23:44:14.840Z,10.30
2018-12-08T23:46:42.128Z,10.30
2018-12-08T23:49:11.402Z,10.20
2018-12-08T23:51:38.657Z,10.20
2018-12-08T23:54:05.798Z,10.30
2018-12-08T23:56:33.175Z,10.40
2018-12-08T23:59:00.302Z,10.40
